createdAt,value
2022-10-21T00:00:27.598Z,100698.80
2022-10-21T00:01:29.493Z,100697.05
2022-10-21T00:02:31.302Z,100693.61
2022-10-21T00:03:33.523Z,100702.21
2022-10-21T00:04:35.311Z,100702.21
2022-10-21T00:05:36.937Z,100699.67
2022-10-21T00:06:39.034Z,100696.26
2022-10-21T00:07:40.880Z,100693.72
2022-10-21T00:08:42.642Z,100695.41
2022-10-21T00:09:44.442Z,100694.53
2022-10-21T00:10:52.909Z,100703.09
2022-10-21T00:11:54.656Z,100701.34
2022-10-21T00:12:56.529Z,100694.48
2022-10-21T00:13:58.391Z,100701.34
2022-10-21T00:15:03.607Z,100700.43
2022-10-21T00:16:12.789Z,100698.73
2022-10-21T00:17:14.612Z,100698.71
2022-10-21T00:18:16.272Z,100694.42
2022-10-21T00:19:18.187Z,100701.27
2022-10-21T00:20:20.260Z,100701.27
2022-10-21T00:21:22.184Z,100695.33
2022-10-21T00:22:24.035Z,100706.41
2022-10-21T00:23:26.280Z,100707.28
2022-10-21T00:24:28.297Z,100695.36
2022-10-21T00:25:30.071Z,100697.05
2022-10-21T00:26:36.225Z,100697.92
2022-10-21T00:27:37.600Z,100683.38
2022-10-21T00:28:40.846Z,100692.79
2022-10-21T00:29:42.540Z,100686.81
2022-10-21T00:30:45.471Z,100688.50
2022-10-21T00:31:47.926Z,100690.25
2022-10-21T00:32:49.725Z,100691.94
2022-10-21T00:33:52.038Z,100690.20
2022-10-21T00:34:53.826Z,100690.20
2022-10-21T00:35:58.520Z,100691.01
2022-10-21T00:37:00.442Z,100688.45
2022-10-21T00:38:02.238Z,100690.13
2022-10-21T00:39:04.200Z,100691.88
2022-10-21T00:40:08.485Z,100692.70
2022-10-21T00:41:11.522Z,100693.52
2022-10-21T00:42:19.030Z,100690.95
2022-10-21T00:43:22.405Z,100691.79
2022-10-21T00:44:26.144Z,100690.06
2022-10-21T00:45:29.823Z,100696.08
2022-10-21T00:46:50.675Z,100696.95
2022-10-21T00:48:05.302Z,100706.34
2022-10-21T00:49:26.655Z,100708.97
2022-10-21T00:50:41.691Z,100711.54
2022-10-21T00:51:45.163Z,100699.55
2022-10-21T00:52:47.384Z,100710.63
2022-10-21T00:53:51.072Z,100704.62
2022-10-21T00:54:56.574Z,100698.61
2022-10-21T00:56:02.048Z,100699.52
2022-10-21T00:57:04.278Z,100702.05
2022-10-21T00:58:07.544Z,100711.50
2022-10-21T00:59:09.662Z,100714.95
2022-10-21T01:00:13.897Z,100708.94
2022-10-21T01:01:19.183Z,100711.47
2022-10-21T01:02:21.739Z,100708.06
2022-10-21T01:03:25.922Z,100708.91
2022-10-21T01:04:28.059Z,100702.93
2022-10-21T01:05:31.302Z,100710.63
2022-10-21T01:06:36.525Z,100705.50
2022-10-21T01:07:41.073Z,100705.50
2022-10-21T01:08:43.107Z,100701.21
2022-10-21T01:09:45.064Z,100707.22
2022-10-21T01:10:47.395Z,100707.22
2022-10-21T01:11:49.657Z,100706.38
2022-10-21T01:13:01.960Z,100702.05
2022-10-21T01:14:13.048Z,100702.05
2022-10-21T01:15:26.978Z,100696.95
2022-10-21T01:16:48.423Z,100696.14
2022-10-21T01:18:06.155Z,100700.46
2022-10-21T01:19:28.300Z,100698.71
2022-10-21T01:20:37.379Z,100697.86
2022-10-21T01:21:42.852Z,100697.02
2022-10-21T01:23:20.712Z,100688.45
2022-10-21T01:24:43.141Z,100685.00
2022-10-21T01:26:03.704Z,100692.73
2022-10-21T01:27:24.089Z,100696.17
2022-10-21T01:28:45.121Z,100697.05
2022-10-21T01:30:02.963Z,100693.64
2022-10-21T01:31:26.973Z,100702.18
2022-10-21T01:34:13.252Z,100694.53
2022-10-21T01:35:30.287Z,100702.18
2022-10-21T01:36:38.648Z,100693.64
2022-10-21T01:37:47.109Z,100694.48
2022-10-21T01:39:08.043Z,100691.07
2022-10-21T01:40:19.761Z,100696.20
2022-10-21T01:41:28.484Z,100695.36
2022-10-21T01:42:40.385Z,100698.77
2022-10-21T01:43:48.991Z,100697.05
2022-10-21T01:44:57.316Z,100698.80
2022-10-21T01:46:06.547Z,100700.48
2022-10-21T01:47:12.642Z,100703.91
2022-10-21T01:48:21.209Z,100705.63
2022-10-21T01:49:35.769Z,100714.17
2022-10-21T01:50:41.470Z,100719.23
2022-10-21T01:51:44.368Z,100730.31
2022-10-21T01:52:49.873Z,100723.49
2022-10-21T01:54:04.286Z,100740.58
2022-10-21T01:55:10.074Z,100732.91
2022-10-21T01:56:15.301Z,100732.95
2022-10-21T01:57:20.495Z,100735.48
2022-10-21T01:58:25.923Z,100726.91
2022-10-21T01:59:30.724Z,100738.01
2022-10-21T02:00:36.975Z,100720.08
2022-10-21T02:01:40.100Z,100727.78
2022-10-21T02:02:45.509Z,100733.72
2022-10-21T02:03:50.972Z,100719.20
2022-10-21T02:04:55.413Z,100720.05
2022-10-21T02:05:57.846Z,100722.61
2022-10-21T02:07:00.483Z,100721.80
2022-10-21T02:08:03.134Z,100712.42
2022-10-21T02:09:05.232Z,100710.70
2022-10-21T02:10:08.170Z,100725.28
2022-10-21T02:11:11.685Z,100720.99
2022-10-21T02:12:16.004Z,100723.53
2022-10-21T02:13:24.491Z,100729.50
2022-10-21T02:14:36.008Z,100742.33
2022-10-21T02:15:40.028Z,100743.14
2022-10-21T02:16:43.634Z,100743.10
2022-10-21T02:17:49.183Z,100731.95
2022-10-21T02:18:50.903Z,100727.67
2022-10-21T02:19:56.101Z,100731.96
2022-10-21T02:21:04.415Z,100735.41
2022-10-21T02:22:09.537Z,100736.20
2022-10-21T02:23:14.528Z,100732.80
2022-10-21T02:24:23.025Z,100739.70
2022-10-21T02:25:28.590Z,100739.73
2022-10-21T02:26:31.206Z,100731.12
2022-10-21T02:27:33.384Z,100736.17
2022-10-21T02:28:35.631Z,100735.33
2022-10-21T02:29:41.226Z,100737.94
2022-10-21T02:30:52.843Z,100738.77
2022-10-21T02:32:19.837Z,100734.48
2022-10-21T02:33:25.309Z,100745.63
2022-10-21T02:34:50.222Z,100732.00
2022-10-21T02:36:04.427Z,100735.41
2022-10-21T02:37:41.872Z,100734.53
2022-10-21T02:38:50.300Z,100736.20
2022-10-21T02:39:55.782Z,100732.84
2022-10-21T02:41:01.515Z,100735.45
2022-10-21T02:42:06.764Z,100737.97
2022-10-21T02:43:24.110Z,100736.25
2022-10-21T02:44:26.052Z,100741.38
2022-10-21T02:45:28.054Z,100731.95
2022-10-21T02:46:39.149Z,100743.10
2022-10-21T02:47:42.996Z,100741.27
2022-10-21T02:48:46.980Z,100739.58
2022-10-21T02:49:48.716Z,100740.41
2022-10-21T02:50:51.762Z,100736.17
2022-10-21T02:51:54.067Z,100738.73
2022-10-21T02:52:56.876Z,100748.11
2022-10-21T02:53:58.870Z,100748.02
2022-10-21T02:55:00.615Z,100743.78
2022-10-21T02:56:03.130Z,100739.53
2022-10-21T02:57:04.847Z,100737.00
2022-10-21T02:58:06.666Z,100737.09
2022-10-21T02:59:08.865Z,100734.48
2022-10-21T03:00:12.386Z,100739.58
2022-10-21T03:01:15.396Z,100737.84
2022-10-21T03:02:17.388Z,100739.57
2022-10-21T03:03:19.409Z,100740.41
2022-10-21T03:04:22.347Z,100742.10
2022-10-21T03:05:24.807Z,100742.10
2022-10-21T03:06:26.959Z,100756.61
2022-10-21T03:07:28.990Z,100744.66
2022-10-21T03:08:30.736Z,100764.30
2022-10-21T03:09:32.651Z,100764.30
2022-10-21T03:10:35.996Z,100766.86
2022-10-21T03:11:37.931Z,100763.50
2022-10-21T03:12:39.648Z,100765.18
2022-10-21T03:13:41.299Z,100767.70
2022-10-21T03:14:43.100Z,100763.41
2022-10-21T03:15:44.756Z,100756.55
2022-10-21T03:16:46.766Z,100759.97
2022-10-21T03:17:48.603Z,100768.50
2022-10-21T03:18:50.416Z,100758.19
2022-10-21T03:19:52.291Z,100760.74
2022-10-21T03:20:54.803Z,100760.74
2022-10-21T03:21:56.847Z,100753.10
2022-10-21T03:22:58.903Z,100762.52
2022-10-21T03:24:01.675Z,100750.58
2022-10-21T03:25:04.656Z,100750.58
2022-10-21T03:26:06.924Z,100755.67
2022-10-21T03:27:09.095Z,100761.68
2022-10-21T03:28:11.566Z,100749.70
2022-10-21T03:29:14.185Z,100750.55
2022-10-21T03:30:16.574Z,100751.38
2022-10-21T03:31:18.252Z,100751.43
2022-10-21T03:32:19.980Z,100754.88
2022-10-21T03:33:22.180Z,100756.55
2022-10-21T03:34:24.035Z,100751.42
2022-10-21T03:35:27.577Z,100743.73
2022-10-21T03:36:29.553Z,100750.63
2022-10-21T03:37:31.328Z,100746.34
2022-10-21T03:38:33.227Z,100753.20
2022-10-21T03:39:34.982Z,100747.23
2022-10-21T03:40:37.218Z,100746.39
2022-10-21T03:41:39.395Z,100741.30
2022-10-21T03:42:41.501Z,100738.65
2022-10-21T03:43:43.587Z,100738.61
2022-10-21T03:44:45.323Z,100737.77
2022-10-21T03:45:47.486Z,100740.37
2022-10-21T03:46:49.356Z,100736.97
2022-10-21T03:47:51.232Z,100739.57
2022-10-21T03:48:53.158Z,100748.11
2022-10-21T03:49:55.317Z,100751.52
2022-10-21T03:50:57.382Z,100747.19
2022-10-21T03:51:59.219Z,100744.66
2022-10-21T03:53:09.924Z,100737.84
2022-10-21T03:54:06.521Z,100737.84
2022-10-21T03:55:08.864Z,100736.09
2022-10-21T03:56:12.763Z,100740.42
2022-10-21T03:57:14.629Z,100748.11
2022-10-21T03:58:17.589Z,100743.02
2022-10-21T03:59:19.914Z,100742.14
2022-10-21T04:00:24.330Z,100743.06
2022-10-21T04:01:27.886Z,100735.44
2022-10-21T04:02:30.386Z,100736.29
2022-10-21T04:03:32.283Z,100738.84
2022-10-21T04:04:34.835Z,100734.70
2022-10-21T04:05:36.846Z,100734.70
2022-10-21T04:06:38.740Z,100738.14
2022-10-21T04:07:41.055Z,100735.61
2022-10-21T04:08:43.948Z,100738.18
2022-10-21T04:09:46.098Z,100739.87
2022-10-21T04:10:49.049Z,100739.90
2022-10-21T04:11:51.353Z,100742.44
2022-10-21T04:12:53.140Z,100733.02
2022-10-21T04:13:54.961Z,100737.36
2022-10-21T04:14:56.819Z,100740.02
2022-10-21T04:16:00.625Z,100738.23
2022-10-21T04:17:07.307Z,100743.34
2022-10-21T04:18:07.173Z,100739.87
2022-10-21T04:19:16.091Z,100739.90
2022-10-21T04:20:18.879Z,100745.03
2022-10-21T04:21:20.760Z,100749.35
2022-10-21T04:22:22.714Z,100743.38
2022-10-21T04:23:24.675Z,100739.92
2022-10-21T04:24:27.183Z,100744.27
2022-10-21T04:25:28.990Z,100751.18
2022-10-21T04:26:31.417Z,100749.52
2022-10-21T04:27:33.282Z,100752.94
2022-10-21T04:28:35.948Z,100753.75
2022-10-21T04:29:37.730Z,100758.88
2022-10-21T04:30:40.539Z,100763.15
2022-10-21T04:31:42.526Z,100753.72
2022-10-21T04:32:44.450Z,100758.91
2022-10-21T04:33:47.210Z,100755.48
2022-10-21T04:34:49.177Z,100753.80
2022-10-21T04:35:54.077Z,100754.61
2022-10-21T04:36:57.900Z,100756.37
2022-10-21T04:37:59.971Z,100761.47
2022-10-21T04:39:02.307Z,100762.33
2022-10-21T04:40:06.697Z,100764.07
2022-10-21T04:41:09.222Z,100759.81
2022-10-21T04:42:11.471Z,100760.63
2022-10-21T04:43:13.267Z,100764.05
2022-10-21T04:44:15.135Z,100761.50
2022-10-21T04:45:18.280Z,100770.03
2022-10-21T04:46:20.201Z,100769.18
2022-10-21T04:47:22.356Z,100769.18
2022-10-21T04:48:24.395Z,100771.78
2022-10-21T04:49:26.153Z,100768.36
2022-10-21T04:50:28.041Z,100769.18
2022-10-21T04:51:29.792Z,100772.55
2022-10-21T04:52:31.977Z,100770.83
2022-10-21T04:53:33.860Z,100758.89
2022-10-21T04:54:35.572Z,100770.88
2022-10-21T04:55:41.217Z,100765.72
2022-10-21T04:56:43.145Z,100760.60
2022-10-21T04:57:44.857Z,100757.19
2022-10-21T04:58:47.783Z,100765.77
2022-10-21T04:59:49.549Z,100766.61
2022-10-21T05:00:52.582Z,100765.77
2022-10-21T05:01:55.030Z,100762.39
2022-10-21T05:02:58.559Z,100769.23
2022-10-21T05:04:00.932Z,100762.37
2022-10-21T05:05:04.101Z,100770.09
2022-10-21T05:06:06.175Z,100769.23
2022-10-21T05:07:08.392Z,100773.50
2022-10-21T05:08:11.642Z,100773.49
2022-10-21T05:09:14.547Z,100772.67
2022-10-21T05:10:16.868Z,100777.81
2022-10-21T05:11:18.762Z,100776.04
2022-10-21T05:12:20.931Z,100771.73
2022-10-21T05:13:23.776Z,100777.73
2022-10-21T05:14:25.713Z,100773.45
2022-10-21T05:15:27.452Z,100769.18
2022-10-21T05:16:30.283Z,100770.03
2022-10-21T05:17:32.005Z,100770.97
2022-10-21T05:18:33.763Z,100762.41
2022-10-21T05:19:36.020Z,100766.70
2022-10-21T05:20:37.823Z,100769.27
2022-10-21T05:21:39.551Z,100770.97
2022-10-21T05:22:41.648Z,100764.09
2022-10-21T05:23:43.687Z,100761.52
2022-10-21T05:24:45.529Z,100766.70
2022-10-21T05:25:48.052Z,100766.70
2022-10-21T05:26:50.084Z,100770.12
2022-10-21T05:27:51.724Z,100770.95
2022-10-21T05:28:54.535Z,100765.80
2022-10-21T05:29:56.784Z,100772.69
2022-10-21T05:30:59.878Z,100764.14
2022-10-21T05:32:03.113Z,100771.90
2022-10-21T05:33:06.201Z,100762.50
2022-10-21T05:34:08.166Z,100764.23
2022-10-21T05:35:10.062Z,100772.79
2022-10-21T05:36:12.885Z,100776.25
2022-10-21T05:37:14.975Z,100765.09
2022-10-21T05:38:16.610Z,100767.69
2022-10-21T05:39:18.436Z,100765.97
2022-10-21T05:40:20.263Z,100762.57
2022-10-21T05:41:22.992Z,100765.13
2022-10-21T05:42:25.435Z,100765.12
2022-10-21T05:43:27.726Z,100777.98
2022-10-21T05:44:30.075Z,100777.98
2022-10-21T05:45:32.743Z,100789.13
2022-10-21T05:46:34.690Z,100783.13
2022-10-21T05:47:37.508Z,100777.98
2022-10-21T05:48:39.350Z,100777.98
2022-10-21T05:49:41.041Z,100772.83
2022-10-21T05:50:44.966Z,100774.52
2022-10-21T05:51:47.085Z,100780.54
2022-10-21T05:52:50.128Z,100781.41
2022-10-21T05:53:52.870Z,100771.12
2022-10-21T05:54:55.203Z,100779.69
2022-10-21T05:56:07.132Z,100771.96
2022-10-21T05:57:09.356Z,100778.84
2022-10-21T05:58:11.019Z,100776.25
2022-10-21T05:59:13.591Z,100782.30
2022-10-21T06:00:15.910Z,100786.58
2022-10-21T06:01:18.875Z,100779.72
2022-10-21T06:02:22.098Z,100788.28
2022-10-21T06:03:27.219Z,100787.43
2022-10-21T06:04:35.049Z,100787.41
2022-10-21T06:05:34.777Z,100786.58
2022-10-21T06:06:36.755Z,100793.44
2022-10-21T06:07:38.639Z,100791.70
2022-10-21T06:08:40.738Z,100794.28
2022-10-21T06:09:42.785Z,100797.69
2022-10-21T06:10:44.891Z,100799.42
2022-10-21T06:11:46.962Z,100795.11
2022-10-21T06:12:48.731Z,100801.96
2022-10-21T06:13:50.628Z,100806.25
2022-10-21T06:14:52.874Z,100799.41
2022-10-21T06:15:55.862Z,100791.72
2022-10-21T06:16:58.561Z,100792.58
2022-10-21T06:18:00.252Z,100802.00
2022-10-21T06:19:03.029Z,100803.73
2022-10-21T06:20:06.016Z,100796.01
2022-10-21T06:21:10.337Z,100795.15
2022-10-21T06:22:12.221Z,100792.55
2022-10-21T06:23:14.384Z,100796.83
2022-10-21T06:24:16.276Z,100796.83
2022-10-21T06:25:18.082Z,100791.68
2022-10-21T06:26:20.216Z,100789.13
2022-10-21T06:27:23.102Z,100795.14
2022-10-21T06:28:27.008Z,100797.69
2022-10-21T06:29:29.455Z,100803.70
2022-10-21T06:30:31.682Z,100793.41
2022-10-21T06:31:34.032Z,100795.98
2022-10-21T06:32:36.127Z,100795.98
2022-10-21T06:33:38.941Z,100801.97
2022-10-21T06:34:40.883Z,100801.97
2022-10-21T06:35:42.637Z,100802.86
2022-10-21T06:36:44.354Z,100798.58
2022-10-21T06:37:45.998Z,100795.80
2022-10-21T06:38:47.627Z,100796.70
2022-10-21T06:39:49.865Z,100801.03
2022-10-21T06:40:53.071Z,100801.87
2022-10-21T06:41:56.033Z,100782.86
2022-10-21T06:43:03.219Z,100782.86
2022-10-21T06:44:05.044Z,100804.28
2022-10-21T06:45:06.987Z,100810.31
2022-10-21T06:46:12.271Z,100799.28
2022-10-21T06:47:14.111Z,100815.67
2022-10-21T06:48:16.283Z,100812.30
2022-10-21T06:49:18.103Z,100812.30
2022-10-21T06:50:21.581Z,100812.32
2022-10-21T06:51:24.017Z,100813.90
2022-10-21T06:53:28.671Z,100815.52
2022-10-21T06:54:31.782Z,100813.88
2022-10-21T06:55:34.509Z,100812.13
2022-10-21T06:56:38.716Z,100815.52
2022-10-21T06:57:41.083Z,100815.48
2022-10-21T06:58:43.517Z,100816.89
2022-10-21T06:59:46.663Z,100813.55
2022-10-21T07:00:48.704Z,100816.24
2022-10-21T07:02:06.106Z,100813.41
2022-10-21T07:02:55.373Z,100813.45
2022-10-21T07:03:58.364Z,100812.08
2022-10-21T07:05:00.139Z,100812.08
2022-10-21T07:06:02.637Z,100818.08
2022-10-21T07:07:04.519Z,100821.45
2022-10-21T07:08:09.398Z,100820.64
2022-10-21T07:09:11.307Z,100817.29
2022-10-21T07:10:13.276Z,100819.95
2022-10-21T07:11:16.178Z,100825.05
2022-10-21T07:12:18.343Z,100819.94
2022-10-21T07:13:25.650Z,100819.08
2022-10-21T07:14:25.030Z,100821.61
2022-10-21T07:15:26.637Z,100821.59
2022-10-21T07:16:31.271Z,100825.02
2022-10-21T07:17:33.162Z,100817.23
2022-10-21T07:18:37.007Z,100818.86
2022-10-21T07:19:39.853Z,100815.37
2022-10-21T07:20:42.254Z,100820.47
2022-10-21T07:21:44.222Z,100817.14
2022-10-21T07:22:45.965Z,100819.56
2022-10-21T07:23:50.266Z,100825.70
2022-10-21T07:24:52.152Z,100826.41
2022-10-21T07:25:54.250Z,100825.62
2022-10-21T07:26:56.273Z,100814.47
2022-10-21T07:27:57.860Z,100818.78
2022-10-21T07:28:59.896Z,100813.66
2022-10-21T07:30:02.824Z,100815.39
2022-10-21T07:31:06.088Z,100815.38
2022-10-21T07:32:08.133Z,100815.41
2022-10-21T07:33:10.672Z,100824.92
2022-10-21T07:34:12.542Z,100818.91
2022-10-21T07:35:14.387Z,100829.23
2022-10-21T07:36:21.581Z,100809.53
2022-10-21T07:37:23.845Z,100809.53
2022-10-21T07:38:25.613Z,100822.36
2022-10-21T07:39:27.847Z,100816.31
2022-10-21T07:40:30.420Z,100818.89
2022-10-21T07:41:36.639Z,100827.52
2022-10-21T07:42:39.052Z,100824.06
2022-10-21T07:43:40.996Z,100819.77
2022-10-21T07:44:42.764Z,100825.73
2022-10-21T07:45:44.767Z,100824.05
2022-10-21T07:46:48.464Z,100813.73
2022-10-21T07:47:50.565Z,100832.61
2022-10-21T07:48:52.577Z,100822.30
2022-10-21T07:49:54.313Z,100829.14
2022-10-21T07:51:03.762Z,100812.82
2022-10-21T07:52:06.175Z,100823.96
2022-10-21T07:53:12.520Z,100821.36
2022-10-21T07:54:13.784Z,100820.42
2022-10-21T07:55:17.003Z,100813.55
2022-10-21T07:56:23.036Z,100817.80
2022-10-21T07:57:24.993Z,100810.02
2022-10-21T07:58:26.816Z,100816.89
2022-10-21T07:59:29.124Z,100816.02
2022-10-21T08:00:31.101Z,100814.31
2022-10-21T08:01:33.437Z,100822.02
2022-10-21T08:02:37.059Z,100816.03
2022-10-21T08:03:39.719Z,100823.73
2022-10-21T08:04:42.272Z,100825.41
2022-10-21T08:05:44.006Z,100817.61
2022-10-21T08:06:47.375Z,100822.70
2022-10-21T08:07:49.443Z,100828.75
2022-10-21T08:08:51.746Z,100834.80
2022-10-21T08:09:56.575Z,100821.86
2022-10-21T08:10:58.670Z,100827.02
2022-10-21T08:12:00.667Z,100820.11
2022-10-21T08:13:03.527Z,100809.69
2022-10-21T08:14:08.217Z,100809.69
2022-10-21T08:15:11.525Z,100819.91
2022-10-21T08:16:13.974Z,100823.14
2022-10-21T08:17:16.055Z,100827.59
2022-10-21T08:18:19.465Z,100826.66
2022-10-21T08:19:22.266Z,100826.66
2022-10-21T08:20:24.466Z,100827.42
2022-10-21T08:21:28.395Z,100827.55
2022-10-21T08:22:32.337Z,100819.23
2022-10-21T08:23:36.253Z,100831.27
2022-10-21T08:24:41.414Z,100826.23
2022-10-21T08:27:02.890Z,100820.12
2022-10-21T08:28:07.114Z,100819.17
2022-10-21T08:29:09.366Z,100815.80
2022-10-21T08:30:12.681Z,100813.92
2022-10-21T08:31:18.165Z,100815.38
2022-10-21T08:32:20.152Z,100817.59
2022-10-21T08:33:21.880Z,100818.41
2022-10-21T08:34:24.691Z,100820.73
2022-10-21T08:35:28.086Z,100818.57
2022-10-21T08:36:31.135Z,100812.84
2022-10-21T08:37:33.099Z,100812.84
2022-10-21T08:38:35.155Z,100815.62
2022-10-21T08:39:37.118Z,100808.84
2022-10-21T08:40:42.638Z,100801.92
2022-10-21T08:42:12.226Z,100801.92
2022-10-21T08:43:23.618Z,100807.06
2022-10-21T08:44:42.138Z,100809.01
2022-10-21T08:45:51.063Z,100810.63
2022-10-21T08:47:02.693Z,100809.66
2022-10-21T08:48:08.332Z,100813.81
2022-10-21T08:49:25.098Z,100812.08
2022-10-21T08:50:37.263Z,100817.08
2022-10-21T08:51:58.968Z,100823.53
2022-10-21T08:53:04.487Z,100809.75
2022-10-21T08:54:10.965Z,100815.61
2022-10-21T08:55:19.235Z,100815.89
2022-10-21T08:56:22.091Z,100806.84
2022-10-21T08:57:25.503Z,100808.70
2022-10-21T08:58:28.720Z,100806.91
2022-10-21T08:59:32.059Z,100818.83
2022-10-21T09:00:40.690Z,100814.58
2022-10-21T09:01:48.406Z,100813.56
2022-10-21T09:03:19.859Z,100817.94
2022-10-21T09:04:28.384Z,100813.50
2022-10-21T09:05:52.075Z,100817.58
2022-10-21T09:07:27.451Z,100820.70
2022-10-21T09:08:39.041Z,100820.47
2022-10-21T09:09:47.663Z,100812.38
2022-10-21T09:11:01.896Z,100799.23
2022-10-21T09:12:13.785Z,100802.78
2022-10-21T09:13:52.359Z,100805.38
2022-10-21T09:15:07.298Z,100809.79
2022-10-21T09:16:14.036Z,100801.42
2022-10-21T09:17:38.878Z,100806.30
2022-10-21T09:18:45.543Z,100802.63
2022-10-21T09:19:54.194Z,100811.39
2022-10-21T09:21:05.886Z,100801.22
2022-10-21T09:22:34.414Z,100798.21
2022-10-21T09:24:46.584Z,100802.38
2022-10-21T09:25:54.871Z,100806.87
2022-10-21T09:26:58.363Z,100818.19
2022-10-21T09:28:04.396Z,100814.44
2022-10-21T09:29:16.378Z,100819.72
2022-10-21T09:30:21.452Z,100817.20
2022-10-21T09:31:23.467Z,100828.56
2022-10-21T09:33:54.630Z,100818.11
2022-10-21T09:35:06.269Z,100819.85
2022-10-21T09:36:14.626Z,100815.58
2022-10-21T09:37:30.481Z,100803.67
2022-10-21T09:38:47.241Z,100808.03
2022-10-21T09:40:18.560Z,100806.26
2022-10-21T09:41:23.610Z,100811.31
2022-10-21T09:43:30.356Z,100815.35
2022-10-21T09:44:32.261Z,100805.94
2022-10-21T09:45:40.588Z,100807.78
2022-10-21T09:46:48.701Z,100805.87
2022-10-21T09:48:03.921Z,100809.43
2022-10-21T09:49:47.266Z,100802.50
2022-10-21T09:50:16.785Z,100794.59
2022-10-21T09:51:28.361Z,100805.73
2022-10-21T09:52:34.479Z,100811.69
2022-10-21T09:53:53.907Z,100807.16
2022-10-21T09:54:54.397Z,100811.75
2022-10-21T09:56:07.130Z,100821.38
2022-10-21T09:57:21.878Z,100809.53
2022-10-21T09:58:30.309Z,100806.16
2022-10-21T09:59:33.406Z,100805.16
2022-10-21T10:00:45.728Z,100800.79
2022-10-21T10:01:49.119Z,100797.36
2022-10-21T10:02:51.892Z,100800.75
2022-10-21T10:03:54.047Z,100800.62
2022-10-21T10:04:56.166Z,100795.61
2022-10-21T10:05:58.337Z,100807.75
2022-10-21T10:07:03.502Z,100800.89
2022-10-21T10:08:28.895Z,100799.04
2022-10-21T10:09:34.491Z,100797.30
2022-10-21T10:10:37.678Z,100797.30
2022-10-21T10:11:49.563Z,100796.52
2022-10-21T10:12:58.284Z,100796.55
2022-10-21T10:14:04.322Z,100792.25
2022-10-21T10:16:34.714Z,100790.09
2022-10-21T10:17:36.558Z,100791.13
2022-10-21T10:18:38.799Z,100790.13
2022-10-21T10:19:40.957Z,100780.60
2022-10-21T10:20:44.013Z,100788.44
2022-10-21T10:21:46.404Z,100780.59
2022-10-21T10:23:04.243Z,100783.09
2022-10-21T10:24:08.629Z,100775.20
2022-10-21T10:25:17.220Z,100772.53
2022-10-21T10:26:30.130Z,100768.95
2022-10-21T10:27:32.460Z,100770.75
2022-10-21T10:28:34.655Z,100767.80
2022-10-21T10:29:36.843Z,100763.22
2022-10-21T10:30:45.420Z,100765.97
2022-10-21T10:31:50.968Z,100764.26
2022-10-21T10:32:56.179Z,100774.02
2022-10-21T10:34:07.655Z,100772.53
2022-10-21T10:36:32.409Z,100771.23
2022-10-21T10:37:36.921Z,100777.41
2022-10-21T10:38:42.582Z,100780.77
2022-10-21T10:39:48.168Z,100777.41
2022-10-21T10:40:53.220Z,100779.13
2022-10-21T10:41:55.423Z,100768.77
2022-10-21T10:43:16.147Z,100776.97
2022-10-21T10:44:40.602Z,100769.06
2022-10-21T10:45:50.072Z,100769.40
2022-10-21T10:46:58.240Z,100781.00
2022-10-21T10:48:02.736Z,100776.00
2022-10-21T10:49:19.850Z,100777.60
2022-10-21T10:50:39.763Z,100774.28
2022-10-21T10:51:45.391Z,100777.97
2022-10-21T10:52:47.550Z,100767.39
2022-10-21T10:54:08.214Z,100767.97
2022-10-21T10:55:17.627Z,100766.84
2022-10-21T10:56:38.193Z,100760.07
2022-10-21T10:57:46.126Z,100766.72
2022-10-21T10:59:02.901Z,100763.26
2022-10-21T11:00:21.965Z,100756.52
2022-10-21T11:01:28.498Z,100745.63
2022-10-21T11:02:50.259Z,100757.98
2022-10-21T11:03:56.559Z,100748.64
2022-10-21T11:05:35.821Z,100745.83
2022-10-21T11:06:41.620Z,100735.34
2022-10-21T11:07:49.869Z,100734.23
2022-10-21T11:08:56.859Z,100737.50
2022-10-21T11:10:02.469Z,100730.55
2022-10-21T11:11:25.869Z,100731.55
2022-10-21T11:12:28.451Z,100730.69
2022-10-21T11:13:30.944Z,100729.55
2022-10-21T11:14:33.425Z,100725.82
2022-10-21T11:15:51.183Z,100727.41
2022-10-21T11:17:00.654Z,100723.41
2022-10-21T15:27:19.974Z,100687.05
2022-10-21T15:28:22.231Z,100691.53
2022-10-21T15:29:31.514Z,100685.52
2022-10-21T15:30:33.455Z,100690.69
2022-10-21T15:31:35.109Z,100692.38
2022-10-21T15:32:37.846Z,100696.64
2022-10-21T15:33:39.587Z,100689.72
2022-10-21T15:34:41.844Z,100693.99
2022-10-21T15:35:43.716Z,100692.25
2022-10-21T15:36:45.653Z,100694.93
2022-10-21T15:37:49.719Z,100694.93
2022-10-21T15:38:52.166Z,100698.45
2022-10-21T15:39:55.242Z,100695.11
2022-10-21T15:40:58.550Z,100699.41
2022-10-21T15:42:01.148Z,100692.64
2022-10-21T15:43:03.831Z,100694.35
2022-10-21T15:44:24.564Z,100695.13
2022-10-21T15:45:29.804Z,100694.23
2022-10-21T15:46:34.030Z,100703.67
2022-10-21T15:47:35.899Z,100701.94
2022-10-21T15:48:37.773Z,100695.02
2022-10-21T15:49:41.279Z,100707.14
2022-10-21T15:50:43.862Z,100707.19
2022-10-21T15:51:47.755Z,100700.30
2022-10-21T15:52:49.642Z,100705.48
2022-10-21T15:53:52.013Z,100712.28
2022-10-21T15:54:54.028Z,100707.10
2022-10-21T15:55:56.473Z,100706.20
2022-10-21T15:57:00.470Z,100699.38
2022-10-21T15:58:03.064Z,100707.16
2022-10-21T15:59:05.175Z,100698.59
2022-10-21T16:00:20.749Z,100706.44
2022-10-21T16:01:24.611Z,100707.28
2022-10-21T16:02:26.569Z,100708.13
2022-10-21T16:03:29.082Z,100706.44
2022-10-21T16:04:30.934Z,100704.72
2022-10-21T16:05:32.867Z,100713.38
2022-10-21T16:06:35.788Z,100710.81
2022-10-21T16:07:38.845Z,100710.03
2022-10-21T16:08:41.271Z,100710.92
2022-10-21T16:09:43.527Z,100710.92
2022-10-21T16:10:45.877Z,100698.03
2022-10-21T16:11:58.863Z,100701.48
2022-10-21T16:12:54.959Z,100698.90
2022-10-21T16:13:57.576Z,100698.91
2022-10-21T16:14:59.487Z,100700.59
2022-10-21T16:16:02.052Z,100698.92
2022-10-21T16:17:04.176Z,100704.94
2022-10-21T16:19:20.834Z,100695.36
2022-10-21T16:20:28.841Z,100707.61
2022-10-21T16:21:30.972Z,100695.55
2022-10-21T16:22:32.798Z,100699.03
2022-10-21T16:23:34.566Z,100703.38
2022-10-21T16:24:37.502Z,100711.21
2022-10-21T16:25:39.438Z,100699.18
2022-10-21T16:26:45.073Z,100697.47
2022-10-21T16:28:02.463Z,100695.73
2022-10-21T16:28:54.313Z,100706.14
2022-10-21T16:29:57.064Z,100695.83
2022-10-21T16:30:59.298Z,100701.06
2022-10-21T16:32:02.460Z,100703.65
2022-10-21T16:33:05.443Z,100699.33
2022-10-21T16:34:07.490Z,100703.66
2022-10-21T16:35:11.239Z,100699.44
2022-10-21T16:36:20.374Z,100696.80
2022-10-21T16:37:25.846Z,100702.81
2022-10-21T16:38:27.938Z,100702.81
2022-10-21T16:39:29.825Z,100704.53
2022-10-21T16:40:34.677Z,100694.22
2022-10-21T16:41:36.936Z,100688.23
2022-10-21T16:42:42.271Z,100694.23
2022-10-21T16:43:44.391Z,100689.04